Terminal Aerodrome Forecast
Issued by NWS

Home | Current Version | Previous Version | Text Only | Print | Product List | Glossary On
Versions: 1 2 3 4 5 6 7 8 9 10 11 12 13 14 15 16 17 18 19 20 21 22 23
251
FTUS42 KCAE 300858 AAA
TAFDNL
TAF AMD
KDNL 300858Z 3009/3106 13007KT P6SM OVC012
      TEMPO 3010/3014 SCT015 BKN025
     FM301600 15007KT P6SM VCSH SCT015 BKN025
     FM301900 15008KT P6SM -SHRA VCTS SCT020CB BKN050
     FM310000 15006KT P6SM VCSH BKN040=

USA.gov is the U.S. government's official web portal to all federal, state and local government web resources and services.